Louisburg, Minnesota
Current Conditions -  °F | °C
As of 2:33 AM on Monday 24 Nov 2014 (Local Time) from KDXX Reporting Station
Scattered Clouds Scattered Clouds  
Wind Chill:   Ceiling: Unl
Heat Index: 23°   Visibility: 10mi
Dew Point: 16°   Wind: 26mph
Humidity: 74%   Direction: 330°NNW
Pressure: 29.53"   Gusts: 32mph
Location:  44.9929°N, 96.1617°W
Report Text: KDXX 240833Z AUTO 33023G28KT 10SM SCT017 M05/M09 A2953 RMK AO2
Loading
Personal Weather Stations






























Interactive Weather Map New forecast layout! Learn more

10-Day Weather Forecast

Advertisements
Track Severe Weather on mobile